sensor_id;sensor_type;location;lat;lon;timestamp;P1;durP1;ratioP1;P2;durP2;ratioP2
46745;SDS011;32493;50.514;9.678;2023-02-18T16:11:24;0.93;;;0.60;;
46745;SDS011;32493;50.514;9.678;2023-02-18T16:13:36;0.57;;;0.50;;
46745;SDS011;32493;50.514;9.678;2023-02-18T16:15:50;1.10;;;0.68;;
46745;SDS011;32493;50.514;9.678;2023-02-18T16:17:56;2.03;;;0.70;;
46745;SDS011;32493;50.514;9.678;2023-02-18T16:20:13;0.55;;;0.38;;
46745;SDS011;32493;50.514;9.678;2023-02-18T16:22:31;1.15;;;0.45;;
46745;SDS011;32493;50.514;9.678;2023-02-18T16:24:39;1.27;;;0.60;;
46745;SDS011;32493;50.514;9.678;2023-02-18T16:26:50;1.88;;;0.60;;
46745;SDS011;32493;50.514;9.678;2023-02-18T16:29:01;1.40;;;0.47;;
46745;SDS011;32493;50.514;9.678;2023-02-18T16:31:15;0.45;;;0.45;;
46745;SDS011;32493;50.514;9.678;2023-02-18T16:33:22;1.05;;;0.52;;
46745;SDS011;32493;50.514;9.678;2023-02-18T16:35:28;1.10;;;0.50;;
46745;SDS011;32493;50.514;9.678;2023-02-18T16:37:50;1.58;;;0.52;;
46745;SDS011;32493;50.514;9.678;2023-02-18T16:39:58;1.35;;;0.50;;
46745;SDS011;32493;50.514;9.678;2023-02-18T16:42:10;1.38;;;0.80;;
46745;SDS011;32493;50.514;9.678;2023-02-18T16:44:15;2.95;;;0.80;;
46745;SDS011;32493;50.514;9.678;2023-02-18T16:46:21;2.45;;;0.75;;
46745;SDS011;32493;50.514;9.678;2023-02-18T16:48:29;2.15;;;0.40;;
46745;SDS011;32493;50.514;9.678;2023-02-18T16:50:37;1.70;;;0.55;;
46745;SDS011;32493;50.514;9.678;2023-02-18T16:52:42;1.48;;;0.80;;
46745;SDS011;32493;50.514;9.678;2023-02-18T16:54:47;0.77;;;0.43;;
46745;SDS011;32493;50.514;9.678;2023-02-18T16:56:53;0.70;;;0.47;;
46745;SDS011;32493;50.514;9.678;2023-02-18T16:59:01;0.85;;;0.80;;
46745;SDS011;32493;50.514;9.678;2023-02-18T17:01:07;0.95;;;0.73;;
46745;SDS011;32493;50.514;9.678;2023-02-18T17:03:25;0.80;;;0.60;;
46745;SDS011;32493;50.514;9.678;2023-02-18T17:05:32;0.88;;;0.70;;
46745;SDS011;32493;50.514;9.678;2023-02-18T17:07:40;0.50;;;0.40;;
46745;SDS011;32493;50.514;9.678;2023-02-18T17:09:45;1.83;;;0.80;;
46745;SDS011;32493;50.514;9.678;2023-02-18T17:11:51;0.93;;;0.60;;
46745;SDS011;32493;50.514;9.678;2023-02-18T17:14:02;1.23;;;0.50;;
46745;SDS011;32493;50.514;9.678;2023-02-18T17:18:13;0.63;;;0.45;;
46745;SDS011;32493;50.514;9.678;2023-02-18T17:20:18;0.28;;;0.20;;
46745;SDS011;32493;50.514;9.678;2023-02-18T17:22:24;1.30;;;0.50;;
46745;SDS011;32493;50.514;9.678;2023-02-18T17:24:28;0.75;;;0.47;;
46745;SDS011;32493;50.514;9.678;2023-02-18T17:26:34;0.50;;;0.40;;
46745;SDS011;32493;50.514;9.678;2023-02-18T17:28:39;1.40;;;0.60;;
46745;SDS011;32493;50.514;9.678;2023-02-18T17:30:47;1.52;;;0.35;;
46745;SDS011;32493;50.514;9.678;2023-02-18T17:33:01;0.52;;;0.45;;
46745;SDS011;32493;50.514;9.678;2023-02-18T17:35:09;0.70;;;0.32;;
46745;SDS011;32493;50.514;9.678;2023-02-18T17:37:19;0.85;;;0.50;;
46745;SDS011;32493;50.514;9.678;2023-02-18T17:39:24;2.90;;;0.80;;
46745;SDS011;32493;50.514;9.678;2023-02-18T17:41:32;0.63;;;0.45;;
46745;SDS011;32493;50.514;9.678;2023-02-18T17:43:37;0.40;;;0.40;;
46745;SDS011;32493;50.514;9.678;2023-02-18T17:45:43;1.33;;;0.63;;
46745;SDS011;32493;50.514;9.678;2023-02-18T17:47:54;1.20;;;1.02;;
46745;SDS011;32493;50.514;9.678;2023-02-18T17:49:59;2.10;;;0.80;;
46745;SDS011;32493;50.514;9.678;2023-02-18T17:52:05;1.00;;;0.80;;
46745;SDS011;32493;50.514;9.678;2023-02-18T17:54:10;1.30;;;0.77;;
46745;SDS011;32493;50.514;9.678;2023-02-18T17:56:17;1.30;;;1.20;;
46745;SDS011;32493;50.514;9.678;2023-02-18T17:58:22;1.38;;;0.50;;
46745;SDS011;32493;50.514;9.678;2023-02-18T18:00:29;0.85;;;0.68;;
46745;SDS011;32493;50.514;9.678;2023-02-18T18:02:39;1.73;;;0.40;;
46745;SDS011;32493;50.514;9.678;2023-02-18T18:04:47;1.00;;;0.45;;
46745;SDS011;32493;50.514;9.678;2023-02-18T18:06:52;1.95;;;0.68;;
46745;SDS011;32493;50.514;9.678;2023-02-18T18:08:57;2.30;;;1.00;;
46745;SDS011;32493;50.514;9.678;2023-02-18T18:11:02;1.63;;;0.50;;
46745;SDS011;32493;50.514;9.678;2023-02-18T18:13:10;1.33;;;0.70;;
46745;SDS011;32493;50.514;9.678;2023-02-18T18:15:25;0.73;;;0.70;;
46745;SDS011;32493;50.514;9.678;2023-02-18T18:17:34;0.57;;;0.50;;
46745;SDS011;32493;50.514;9.678;2023-02-18T18:19:42;0.90;;;0.60;;
46745;SDS011;32493;50.514;9.678;2023-02-18T18:21:46;2.67;;;0.77;;
46745;SDS011;32493;50.514;9.678;2023-02-18T18:23:51;1.13;;;0.65;;
46745;SDS011;32493;50.514;9.678;2023-02-18T18:25:57;2.30;;;0.60;;
46745;SDS011;32493;50.514;9.678;2023-02-18T18:28:03;0.70;;;0.60;;
46745;SDS011;32493;50.514;9.678;2023-02-18T18:30:09;1.38;;;0.80;;
46745;SDS011;32493;50.514;9.678;2023-02-18T18:32:16;2.95;;;0.50;;
46745;SDS011;32493;50.514;9.678;2023-02-18T18:34:23;2.50;;;0.82;;
46745;SDS011;32493;50.514;9.678;2023-02-18T18:36:30;1.15;;;0.73;;
46745;SDS011;32493;50.514;9.678;2023-02-18T18:38:35;2.42;;;1.27;;
46745;SDS011;32493;50.514;9.678;2023-02-18T18:40:40;1.33;;;0.70;;
46745;SDS011;32493;50.514;9.678;2023-02-18T18:42:46;1.38;;;0.60;;
46745;SDS011;32493;50.514;9.678;2023-02-18T18:44:52;0.85;;;0.47;;
46745;SDS011;32493;50.514;9.678;2023-02-18T18:46:57;1.67;;;0.63;;
46745;SDS011;32493;50.514;9.678;2023-02-18T18:49:02;1.10;;;0.63;;
46745;SDS011;32493;50.514;9.678;2023-02-18T18:51:08;1.17;;;0.75;;
46745;SDS011;32493;50.514;9.678;2023-02-18T18:53:20;0.52;;;0.47;;
46745;SDS011;32493;50.514;9.678;2023-02-18T18:55:28;0.60;;;0.30;;
46745;SDS011;32493;50.514;9.678;2023-02-18T18:57:35;1.23;;;0.30;;
46745;SDS011;32493;50.514;9.678;2023-02-18T18:59:40;0.60;;;0.50;;
46745;SDS011;32493;50.514;9.678;2023-02-18T19:01:45;0.65;;;0.50;;
46745;SDS011;32493;50.514;9.678;2023-02-18T19:03:50;1.50;;;0.65;;
46745;SDS011;32493;50.514;9.678;2023-02-18T19:05:56;0.60;;;0.50;;
46745;SDS011;32493;50.514;9.678;2023-02-18T19:08:02;0.45;;;0.40;;
46745;SDS011;32493;50.514;9.678;2023-02-18T19:10:11;0.55;;;0.35;;
46745;SDS011;32493;50.514;9.678;2023-02-18T19:14:21;0.47;;;0.35;;
46745;SDS011;32493;50.514;9.678;2023-02-18T19:16:26;3.13;;;0.63;;
46745;SDS011;32493;50.514;9.678;2023-02-18T19:18:37;0.50;;;0.50;;
46745;SDS011;32493;50.514;9.678;2023-02-18T19:20:42;1.02;;;0.70;;
46745;SDS011;32493;50.514;9.678;2023-02-18T19:22:48;2.17;;;0.80;;
46745;SDS011;32493;50.514;9.678;2023-02-18T19:24:53;0.57;;;0.40;;
46745;SDS011;32493;50.514;9.678;2023-02-18T19:27:00;2.60;;;0.50;;
46745;SDS011;32493;50.514;9.678;2023-02-18T19:29:05;0.50;;;0.32;;
46745;SDS011;32493;50.514;9.678;2023-02-18T19:31:10;0.40;;;0.40;;
46745;SDS011;32493;50.514;9.678;2023-02-18T19:33:16;0.68;;;0.40;;
46745;SDS011;32493;50.514;9.678;2023-02-18T19:35:21;0.40;;;0.20;;
46745;SDS011;32493;50.514;9.678;2023-02-18T19:37:32;0.93;;;0.30;;
46745;SDS011;32493;50.514;9.678;2023-02-18T19:39:38;2.97;;;0.70;;
46745;SDS011;32493;50.514;9.678;2023-02-18T19:41:43;1.30;;;0.20;;
46745;SDS011;32493;50.514;9.678;2023-02-18T19:43:50;0.93;;;0.70;;
46745;SDS011;32493;50.514;9.678;2023-02-18T19:45:57;0.30;;;0.20;;
46745;SDS011;32493;50.514;9.678;2023-02-18T19:48:02;0.13;;;0.13;;
46745;SDS011;32493;50.514;9.678;2023-02-18T19:50:08;0.73;;;0.30;;
46745;SDS011;32493;50.514;9.678;2023-02-18T19:52:16;0.68;;;0.30;;
46745;SDS011;32493;50.514;9.678;2023-02-18T19:54:22;0.35;;;0.30;;
46745;SDS011;32493;50.514;9.678;2023-02-18T19:56:28;0.77;;;0.40;;
46745;SDS011;32493;50.514;9.678;2023-02-18T19:58:33;0.40;;;0.30;;
46745;SDS011;32493;50.514;9.678;2023-02-18T20:00:43;0.68;;;0.40;;
46745;SDS011;32493;50.514;9.678;2023-02-18T20:02:48;0.52;;;0.50;;
46745;SDS011;32493;50.514;9.678;2023-02-18T20:04:54;1.20;;;0.50;;
46745;SDS011;32493;50.514;9.678;2023-02-18T20:06:59;0.95;;;0.40;;
46745;SDS011;32493;50.514;9.678;2023-02-18T20:09:05;0.50;;;0.30;;
46745;SDS011;32493;50.514;9.678;2023-02-18T20:11:10;0.47;;;0.38;;
46745;SDS011;32493;50.514;9.678;2023-02-18T20:13:15;0.75;;;0.40;;
46745;SDS011;32493;50.514;9.678;2023-02-18T20:15:21;3.80;;;0.73;;
46745;SDS011;32493;50.514;9.678;2023-02-18T20:17:28;0.85;;;0.70;;
46745;SDS011;32493;50.514;9.678;2023-02-18T20:19:34;0.93;;;0.63;;
46745;SDS011;32493;50.514;9.678;2023-02-18T20:21:40;1.70;;;0.70;;
46745;SDS011;32493;50.514;9.678;2023-02-18T20:23:45;1.13;;;0.90;;
46745;SDS011;32493;50.514;9.678;2023-02-18T20:25:50;0.93;;;0.52;;
46745;SDS011;32493;50.514;9.678;2023-02-18T20:27:55;0.55;;;0.55;;
46745;SDS011;32493;50.514;9.678;2023-02-18T20:30:02;1.88;;;0.90;;
46745;SDS011;32493;50.514;9.678;2023-02-18T20:32:09;1.53;;;0.50;;
46745;SDS011;32493;50.514;9.678;2023-02-18T20:34:16;1.00;;;0.80;;
46745;SDS011;32493;50.514;9.678;2023-02-18T20:36:25;1.30;;;0.90;;
46745;SDS011;32493;50.514;9.678;2023-02-18T20:38:31;1.55;;;1.10;;
46745;SDS011;32493;50.514;9.678;2023-02-18T20:40:37;1.00;;;0.90;;
46745;SDS011;32493;50.514;9.678;2023-02-18T20:42:42;2.95;;;1.15;;
46745;SDS011;32493;50.514;9.678;2023-02-18T20:44:47;1.58;;;1.30;;
46745;SDS011;32493;50.514;9.678;2023-02-18T20:46:52;1.55;;;1.25;;
46745;SDS011;32493;50.514;9.678;2023-02-18T20:48:57;3.13;;;1.10;;
46745;SDS011;32493;50.514;9.678;2023-02-18T20:51:06;1.05;;;0.85;;
46745;SDS011;32493;50.514;9.678;2023-02-18T20:53:14;2.50;;;1.20;;
46745;SDS011;32493;50.514;9.678;2023-02-18T20:55:19;1.77;;;1.08;;
46745;SDS011;32493;50.514;9.678;2023-02-18T20:57:24;1.30;;;1.13;;
46745;SDS011;32493;50.514;9.678;2023-02-18T20:59:29;2.85;;;1.67;;
46745;SDS011;32493;50.514;9.678;2023-02-18T21:01:36;2.58;;;1.73;;
46745;SDS011;32493;50.514;9.678;2023-02-18T21:03:41;2.10;;;1.48;;
46745;SDS011;32493;50.514;9.678;2023-02-18T21:05:53;3.20;;;2.22;;
46745;SDS011;32493;50.514;9.678;2023-02-18T21:08:01;3.28;;;2.00;;
46745;SDS011;32493;50.514;9.678;2023-02-18T21:10:07;3.28;;;1.70;;
46745;SDS011;32493;50.514;9.678;2023-02-18T21:12:12;4.15;;;2.30;;
46745;SDS011;32493;50.514;9.678;2023-02-18T21:14:17;3.08;;;2.20;;
46745;SDS011;32493;50.514;9.678;2023-02-18T21:16:23;3.30;;;2.45;;
46745;SDS011;32493;50.514;9.678;2023-02-18T21:18:30;5.35;;;2.40;;
46745;SDS011;32493;50.514;9.678;2023-02-18T21:20:35;2.72;;;2.25;;
46745;SDS011;32493;50.514;9.678;2023-02-18T21:22:40;3.90;;;2.45;;
46745;SDS011;32493;50.514;9.678;2023-02-18T21:24:48;3.95;;;3.13;;
46745;SDS011;32493;50.514;9.678;2023-02-18T21:26:55;2.47;;;2.10;;
46745;SDS011;32493;50.514;9.678;2023-02-18T21:29:01;5.13;;;2.92;;
46745;SDS011;32493;50.514;9.678;2023-02-18T21:31:13;2.80;;;2.15;;
46745;SDS011;32493;50.514;9.678;2023-02-18T21:33:20;3.35;;;2.67;;
46745;SDS011;32493;50.514;9.678;2023-02-18T21:35:25;5.20;;;3.45;;
46745;SDS011;32493;50.514;9.678;2023-02-18T21:37:31;3.72;;;3.17;;
46745;SDS011;32493;50.514;9.678;2023-02-18T21:39:36;3.10;;;2.08;;
46745;SDS011;32493;50.514;9.678;2023-02-18T21:41:44;3.00;;;2.50;;
46745;SDS011;32493;50.514;9.678;2023-02-18T21:46:03;3.20;;;2.58;;
46745;SDS011;32493;50.514;9.678;2023-02-18T21:48:09;2.35;;;2.15;;
46745;SDS011;32493;50.514;9.678;2023-02-18T21:50:27;3.67;;;2.78;;
46745;SDS011;32493;50.514;9.678;2023-02-18T21:52:33;2.53;;;2.20;;
46745;SDS011;32493;50.514;9.678;2023-02-18T21:54:39;2.80;;;2.50;;
46745;SDS011;32493;50.514;9.678;2023-02-18T21:56:50;3.42;;;2.65;;
46745;SDS011;32493;50.514;9.678;2023-02-18T21:58:56;3.30;;;2.45;;
46745;SDS011;32493;50.514;9.678;2023-02-18T22:01:01;2.75;;;2.50;;
46745;SDS011;32493;50.514;9.678;2023-02-18T22:03:06;2.72;;;2.47;;
46745;SDS011;32493;50.514;9.678;2023-02-18T22:05:11;3.15;;;2.70;;
46745;SDS011;32493;50.514;9.678;2023-02-18T22:07:16;3.25;;;2.95;;
46745;SDS011;32493;50.514;9.678;2023-02-18T22:32:50;4.90;;;3.13;;
46745;SDS011;32493;50.514;9.678;2023-02-18T22:34:55;3.38;;;1.70;;
46745;SDS011;32493;50.514;9.678;2023-02-18T22:37:01;5.20;;;2.70;;
46745;SDS011;32493;50.514;9.678;2023-02-18T22:39:06;3.28;;;2.97;;
46745;SDS011;32493;50.514;9.678;2023-02-18T22:41:13;3.33;;;2.13;;
46745;SDS011;32493;50.514;9.678;2023-02-18T22:43:21;3.58;;;2.45;;
46745;SDS011;32493;50.514;9.678;2023-02-18T22:45:26;2.75;;;2.50;;
46745;SDS011;32493;50.514;9.678;2023-02-18T22:47:31;3.67;;;2.45;;
46745;SDS011;32493;50.514;9.678;2023-02-18T22:49:40;2.22;;;1.90;;
46745;SDS011;32493;50.514;9.678;2023-02-18T22:51:45;4.20;;;2.58;;
46745;SDS011;32493;50.514;9.678;2023-02-18T22:53:54;5.68;;;3.42;;
46745;SDS011;32493;50.514;9.678;2023-02-18T22:56:02;3.22;;;2.92;;
46745;SDS011;32493;50.514;9.678;2023-02-18T22:58:10;4.30;;;3.20;;
46745;SDS011;32493;50.514;9.678;2023-02-18T23:00:16;4.68;;;3.40;;
46745;SDS011;32493;50.514;9.678;2023-02-18T23:02:21;4.53;;;3.72;;
46745;SDS011;32493;50.514;9.678;2023-02-18T23:04:28;3.25;;;2.67;;
46745;SDS011;32493;50.514;9.678;2023-02-18T23:06:36;5.22;;;3.80;;
46745;SDS011;32493;50.514;9.678;2023-02-18T23:08:42;5.70;;;4.38;;
46745;SDS011;32493;50.514;9.678;2023-02-18T23:10:57;5.70;;;4.63;;
46745;SDS011;32493;50.514;9.678;2023-02-18T23:13:04;6.68;;;5.43;;
46745;SDS011;32493;50.514;9.678;2023-02-18T23:15:09;9.45;;;5.90;;
46745;SDS011;32493;50.514;9.678;2023-02-18T23:17:14;8.48;;;7.15;;
46745;SDS011;32493;50.514;9.678;2023-02-18T23:19:20;9.30;;;7.57;;
46745;SDS011;32493;50.514;9.678;2023-02-18T23:21:26;11.35;;;7.20;;
46745;SDS011;32493;50.514;9.678;2023-02-18T23:23:35;9.95;;;8.23;;
46745;SDS011;32493;50.514;9.678;2023-02-18T23:25:40;11.75;;;8.57;;
46745;SDS011;32493;50.514;9.678;2023-02-18T23:27:45;12.15;;;9.48;;
46745;SDS011;32493;50.514;9.678;2023-02-18T23:29:50;12.77;;;8.73;;
46745;SDS011;32493;50.514;9.678;2023-02-18T23:31:57;14.27;;;10.02;;
46745;SDS011;32493;50.514;9.678;2023-02-18T23:34:02;14.60;;;10.40;;
46745;SDS011;32493;50.514;9.678;2023-02-18T23:36:11;16.20;;;10.45;;
46745;SDS011;32493;50.514;9.678;2023-02-18T23:38:18;14.50;;;10.90;;
46745;SDS011;32493;50.514;9.678;2023-02-18T23:40:25;14.18;;;9.35;;
46745;SDS011;32493;50.514;9.678;2023-02-18T23:42:31;14.13;;;10.07;;
46745;SDS011;32493;50.514;9.678;2023-02-18T23:44:35;13.68;;;9.70;;
46745;SDS011;32493;50.514;9.678;2023-02-18T23:46:41;12.63;;;9.35;;
46745;SDS011;32493;50.514;9.678;2023-02-18T23:48:47;14.43;;;10.35;;
46745;SDS011;32493;50.514;9.678;2023-02-18T23:50:56;15.75;;;10.88;;
46745;SDS011;32493;50.514;9.678;2023-02-18T23:53:02;11.80;;;8.40;;
46745;SDS011;32493;50.514;9.678;2023-02-18T23:55:08;17.83;;;10.88;;
46745;SDS011;32493;50.514;9.678;2023-02-18T23:57:16;11.07;;;9.02;;
46745;SDS011;32493;50.514;9.678;2023-02-18T23:59:22;13.77;;;9.43;;
